Time;durP1;ratioP1;P1;durP2;ratioP2;P2;SDS_P1;SDS_P2;PMS_P1;PMS_P2;Temp;Humidity;BMP_temperature;BMP_pressure;BME280_temperature;BME280_humidity;BME280_pressure;Samples;Min_cycle;Max_cycle;Signal;HPM_P1;HPM_P2
2023/08/06 00:05:01;;;;;;;3.57;1.90;;;;;;;25.04;53.27;100539.06;10365377;28;96969;-82
2023/08/06 00:10:05;;;;;;;2.53;1.65;;;;;;;25.15;52.96;100530.81;10369744;28;97610;-82
2023/08/06 00:15:10;;;;;;;2.65;1.75;;;;;;;25.18;53.05;100530.50;10368231;28;97195;-81
2023/08/06 00:20:15;;;;;;;2.78;1.70;;;;;;;25.20;53.07;100533.91;10365001;28;96891;-82
2023/08/06 00:25:18;;;;;;;2.30;1.55;;;;;;;25.04;53.23;100525.59;10376903;28;96758;-82
2023/08/06 00:30:21;;;;;;;2.63;1.53;;;;;;;24.98;53.64;100528.84;10381420;28;96794;-82
2023/08/06 00:35:26;;;;;;;2.47;1.50;;;;;;;24.91;53.93;100533.97;10359810;28;96875;-82
2023/08/06 00:40:30;;;;;;;2.53;1.60;;;;;;;24.57;54.52;100528.19;10366902;28;96888;-83
2023/08/06 00:45:35;;;;;;;;;;;;;;;24.55;55.02;100545.50;10370234;28;96811;-83
2023/08/06 00:50:40;;;;;;;2.35;1.60;;;;;;;24.12;55.57;100540.47;10363332;28;96782;-82
2023/08/06 00:55:45;;;;;;;3.38;1.90;;;;;;;24.37;54.91;100545.34;10334745;28;96711;-83
2023/08/06 01:00:49;;;;;;;2.85;1.50;;;;;;;24.45;54.72;100545.47;10385174;28;97096;-83
2023/08/06 01:05:54;;;;;;;3.73;2.00;;;;;;;24.57;54.59;100536.28;10391557;28;96814;-83
2023/08/06 01:11:09;;;;;;;2.72;1.67;;;;;;;24.64;54.33;100537.41;10359126;28;98433;-83
2023/08/06 01:16:12;;;;;;;3.10;1.77;;;;;;;24.64;54.34;100536.53;10408995;28;97414;-83
2023/08/06 01:21:17;;;;;;;3.53;1.52;;;;;;;24.43;54.89;100544.75;10396186;28;98527;-82
2023/08/06 01:26:30;;;;;;;2.33;1.50;;;;;;;24.38;55.57;100541.66;10360987;28;98379;-82
2023/08/06 01:31:37;;;;;;;2.40;1.48;;;;;;;24.48;55.18;100534.44;10368337;28;97064;-81
2023/08/06 01:36:43;;;;;;;2.53;1.48;;;;;;;24.27;55.64;100536.38;10366264;28;96852;-82
2023/08/06 01:41:46;;;;;;;3.53;1.60;;;;;;;24.05;56.44;100528.56;10369940;28;96856;-82
2023/08/06 01:46:49;;;;;;;2.43;1.80;;;;;;;23.80;57.31;100526.41;10368863;28;96882;-83
2023/08/06 01:51:54;;;;;;;3.10;1.43;;;;;;;23.67;57.71;100526.66;10368990;28;98536;-85
2023/08/06 01:56:58;;;;;;;2.80;1.60;;;;;;;23.47;58.24;100516.81;10369625;28;96823;-85
2023/08/06 02:02:01;;;;;;;2.22;1.38;;;;;;;23.35;58.57;100515.22;10374145;28;97570;-84
2023/08/06 02:07:06;;;;;;;2.67;1.73;;;;;;;23.22;58.48;100514.56;10400208;28;96813;-81
2023/08/06 02:12:10;;;;;;;2.53;1.40;;;;;;;23.30;57.34;100512.06;10389035;27;99310;-84
2023/08/06 02:17:13;;;;;;;1.97;1.17;;;;;;;23.40;56.19;100510.28;10375300;28;96745;-84
2023/08/06 02:22:17;;;;;;;2.88;1.60;;;;;;;23.28;56.69;100513.19;10377121;28;98349;-85
2023/08/06 02:27:21;;;;;;;2.10;1.30;;;;;;;23.35;56.33;100517.03;10384325;28;98424;-83
2023/08/06 02:32:24;;;;;;;3.15;1.45;;;;;;;23.37;55.52;100513.22;10375643;28;98960;-83
2023/08/06 02:37:29;;;;;;;2.80;1.75;;;;;;;23.40;55.13;100518.34;10379753;28;96761;-83
2023/08/06 02:42:32;;;;;;;3.55;1.40;;;;;;;23.22;56.29;100516.41;10373560;28;96938;-84
2023/08/06 02:47:35;;;;;;;2.85;1.70;;;;;;;23.00;57.45;100511.19;10361261;28;98466;-84
2023/08/06 02:52:40;;;;;;;3.50;1.88;;;;;;;22.85;58.83;100513.41;10350646;28;97465;-83
2023/08/06 02:57:43;;;;;;;1.90;1.35;;;;;;;22.78;58.50;100512.22;10350878;28;98648;-84
2023/08/06 03:02:46;;;;;;;1.88;1.30;;;;;;;22.92;57.25;100506.50;10349959;28;96799;-84
2023/08/06 03:07:51;;;;;;;3.43;1.60;;;;;;;22.99;56.49;100507.66;10333968;28;96839;-83
2023/08/06 03:12:54;;;;;;;2.13;1.30;;;;;;;23.23;55.17;100512.75;10338373;28;96799;-83
2023/08/06 03:17:58;;;;;;;1.88;1.40;;;;;;;23.14;56.14;100509.03;10350007;28;96903;-82
2023/08/06 03:23:02;;;;;;;2.27;1.33;;;;;;;23.39;54.55;100507.72;10342537;28;96851;-83
2023/08/06 03:28:06;;;;;;;2.08;1.30;;;;;;;23.46;53.89;100506.16;10338597;28;97101;-83
2023/08/06 03:33:09;;;;;;;2.33;1.40;;;;;;;23.26;54.93;100510.63;10351786;28;97026;-84
2023/08/06 03:38:14;;;;;;;2.13;1.40;;;;;;;22.85;57.67;100497.28;10339781;28;97068;-83
2023/08/06 03:43:17;;;;;;;1.90;1.40;;;;;;;23.17;55.31;100491.78;10338664;28;96743;-84
2023/08/06 03:48:20;;;;;;;1.83;1.17;;;;;;;23.46;53.04;100496.28;10359158;28;97790;-84
2023/08/06 03:53:25;;;;;;;2.10;1.13;;;;;;;23.63;52.24;100497.53;10372751;28;98707;-88
2023/08/06 03:58:29;;;;;;;2.00;1.10;;;;;;;23.73;51.38;100492.16;10367670;28;97919;-85
2023/08/06 04:03:32;;;;;;;3.70;1.33;;;;;;;23.81;51.19;100492.28;10371591;28;96812;-86
2023/08/06 04:08:37;;;;;;;1.83;1.10;;;;;;;23.78;50.92;100488.06;10372331;28;96843;-86
2023/08/06 04:13:43;;;;;;;2.58;1.30;;;;;;;23.81;50.33;100487.78;10371336;28;98685;-87
2023/08/06 04:18:47;;;;;;;2.22;1.17;;;;;;;23.82;50.29;100483.25;10367626;28;96927;-86
2023/08/06 04:23:51;;;;;;;2.37;1.10;;;;;;;23.86;49.88;100479.31;10372609;28;96913;-84
2023/08/06 04:28:55;;;;;;;1.52;0.85;;;;;;;23.91;49.77;100482.44;10371623;28;97664;-86
2023/08/06 04:33:58;;;;;;;1.83;1.27;;;;;;;23.92;49.57;100478.75;10356763;28;96878;-86
2023/08/06 04:39:03;;;;;;;1.23;0.80;;;;;;;23.94;49.36;100483.00;10371471;28;98867;-86
2023/08/06 04:44:06;;;;;;;1.38;0.90;;;;;;;24.01;49.07;100483.28;10372582;28;96787;-87
2023/08/06 04:49:09;;;;;;;1.93;0.90;;;;;;;24.06;49.03;100489.94;10368134;28;98486;-87
2023/08/06 04:54:15;;;;;;;2.00;1.00;;;;;;;24.14;48.63;100484.72;10372070;28;97082;-87
2023/08/06 04:59:18;;;;;;;1.40;1.00;;;;;;;24.08;48.84;100484.44;10370124;28;98579;-87
2023/08/06 05:04:21;;;;;;;1.60;0.90;;;;;;;24.16;48.74;100490.81;10370400;28;99163;-87
2023/08/06 05:09:26;;;;;;;1.43;0.70;;;;;;;24.15;48.84;100499.84;10368467;28;96659;-87
2023/08/06 05:14:30;;;;;;;0.90;0.80;;;;;;;24.16;49.06;100492.63;10370683;28;96911;-86
2023/08/06 05:19:33;;;;;;;1.70;0.93;;;;;;;24.15;49.40;100496.31;10383430;22;96808;-87
2023/08/06 05:24:38;;;;;;;1.35;0.90;;;;;;;24.14;49.54;100498.16;10387131;28;96809;-88
2023/08/06 05:29:42;;;;;;;2.20;0.98;;;;;;;24.09;49.78;100503.09;10381067;28;96876;-86
2023/08/06 05:34:45;;;;;;;1.43;0.90;;;;;;;24.10;49.96;100510.16;10388276;28;96846;-87
2023/08/06 05:39:50;;;;;;;6.63;0.80;;;;;;;24.10;50.19;100512.03;10402461;28;96967;-82
2023/08/06 05:44:53;;;;;;;1.42;0.80;;;;;;;24.13;50.17;100511.75;10384760;28;96892;-81
2023/08/06 05:49:57;;;;;;;1.67;0.90;;;;;;;24.12;50.55;100523.47;10393658;27;96899;-85
2023/08/06 05:55:02;;;;;;;0.80;0.70;;;;;;;24.16;50.37;100523.06;10401382;28;98121;-80
2023/08/06 06:00:06;;;;;;;0.90;0.60;;;;;;;24.21;50.33;100538.78;10380675;28;96926;-72
2023/08/06 06:05:10;;;;;;;1.83;0.70;;;;;;;24.30;50.23;100537.97;10393368;28;97195;-73
2023/08/06 06:10:14;;;;;;;1.40;0.70;;;;;;;24.35;50.21;100552.69;10420168;28;96951;-73
2023/08/06 06:15:18;;;;;;;0.90;0.52;;;;;;;24.47;49.83;100558.78;10351061;28;96909;-73
2023/08/06 06:20:21;;;;;;;1.03;0.63;;;;;;;24.55;49.64;100549.00;10395183;28;96958;-73
2023/08/06 06:25:26;;;;;;;1.47;0.80;;;;;;;24.61;49.54;100564.59;10409861;28;96867;-74
2023/08/06 06:30:29;;;;;;;1.83;0.70;;;;;;;24.68;49.14;100565.75;10395538;28;97952;-74
2023/08/06 06:35:32;;;;;;;2.03;0.60;;;;;;;24.75;48.94;100558.78;10408520;28;96678;-73
2023/08/06 06:40:37;;;;;;;1.67;0.87;;;;;;;24.86;48.54;100560.47;10419145;28;97149;-73
2023/08/06 06:45:40;;;;;;;1.42;0.75;;;;;;;24.96;48.17;100557.75;10420052;28;96882;-73
2023/08/06 06:50:44;;;;;;;1.20;0.90;;;;;;;25.09;48.02;100561.00;10395352;28;97358;-73
2023/08/06 06:55:49;;;;;;;1.27;0.60;;;;;;;25.17;47.42;100564.69;10419998;28;96784;-73
2023/08/06 07:00:52;;;;;;;1.52;0.70;;;;;;;25.26;47.30;100561.09;10417159;27;96839;-73
2023/08/06 07:05:58;;;;;;;1.20;0.80;;;;;;;25.37;46.93;100555.56;10410749;28;96736;-74
2023/08/06 07:11:04;;;;;;;2.00;0.80;;;;;;;25.47;46.67;100550.09;10407064;28;96849;-73
2023/08/06 07:16:08;;;;;;;1.13;0.77;;;;;;;25.59;46.51;100557.00;10417489;28;97121;-72
2023/08/06 07:21:14;;;;;;;1.10;0.70;;;;;;;25.69;46.18;100564.09;10418006;28;96925;-72
2023/08/06 07:26:18;;;;;;;2.63;0.90;;;;;;;25.77;46.07;100561.50;10389513;28;96767;-72
2023/08/06 07:31:22;;;;;;;0.82;0.70;;;;;;;25.86;45.40;100565.16;10388051;28;96967;-72
2023/08/06 07:36:26;;;;;;;2.45;0.85;;;;;;;25.98;45.17;100568.47;10378551;28;96849;-72
2023/08/06 07:41:30;;;;;;;1.33;0.70;;;;;;;26.09;44.85;100574.50;10376460;28;96890;-72
2023/08/06 07:46:34;;;;;;;1.15;0.77;;;;;;;26.18;44.59;100565.50;10392466;28;96838;-72
2023/08/06 07:51:37;;;;;;;1.30;0.55;;;;;;;26.26;44.18;100570.16;10385805;28;96848;-72
2023/08/06 07:56:42;;;;;;;0.93;0.60;;;;;;;26.36;44.02;100577.22;10406586;28;97594;-72
2023/08/06 08:01:45;;;;;;;1.08;0.60;;;;;;;26.51;43.95;100572.13;10378607;28;99657;-74
2023/08/06 08:06:48;;;;;;;1.07;0.70;;;;;;;26.56;43.82;100567.94;10374692;28;97100;-75
2023/08/06 08:11:53;;;;;;;1.90;0.80;;;;;;;26.61;43.60;100568.34;10366317;28;97272;-74
2023/08/06 08:17:00;;;;;;;1.27;0.70;;;;;;;26.72;43.22;100570.81;10387504;28;96810;-74
2023/08/06 08:22:04;;;;;;;1.17;0.70;;;;;;;26.82;43.61;100560.75;10381163;28;96945;-73
2023/08/06 08:27:08;;;;;;;;;;;;;;;26.97;43.20;100556.47;10375221;28;96794;-73
2023/08/06 08:32:11;;;;;;;;;;;;;;;27.05;42.93;100558.44;10376176;28;96989;-73
2023/08/06 08:37:15;;;;;;;1.57;0.50;;;;;;;27.10;43.12;100548.00;10374462;28;98246;-73
2023/08/06 08:42:21;;;;;;;1.17;0.73;;;;;;;27.23;42.90;100556.53;10376438;28;97588;-74
2023/08/06 08:47:25;;;;;;;1.00;0.70;;;;;;;27.40;42.63;100550.22;10379659;28;96867;-72
2023/08/06 08:52:31;;;;;;;1.05;0.65;;;;;;;27.57;42.20;100546.59;10402395;28;96916;-72
2023/08/06 08:57:37;;;;;;;1.65;0.80;;;;;;;27.60;41.73;100550.78;10414481;28;96771;-73
2023/08/06 09:02:42;;;;;;;0.80;0.75;;;;;;;27.74;41.73;100553.78;10395235;28;96695;-74
2023/08/06 09:07:49;;;;;;;1.40;0.88;;;;;;;27.86;41.67;100546.22;10377094;28;97256;-76
2023/08/06 09:12:56;;;;;;;0.57;0.55;;;;;;;27.96;40.76;100550.47;10374956;28;99270;-78
2023/08/06 09:17:59;;;;;;;0.60;0.55;;;;;;;27.95;40.54;100548.78;10370927;28;97007;-76
2023/08/06 09:23:08;;;;;;;2.42;0.75;;;;;;;28.28;40.43;100560.53;10372593;28;96891;-74
2023/08/06 09:28:13;;;;;;;1.35;0.70;;;;;;;28.33;40.35;100569.03;10373186;28;97004;-77
2023/08/06 09:33:19;;;;;;;0.85;0.65;;;;;;;28.46;40.21;100560.44;10379282;28;98782;-74
2023/08/06 09:38:23;;;;;;;0.52;0.50;;;;;;;28.63;40.04;100557.59;10373560;28;97017;-74
2023/08/06 09:43:27;;;;;;;1.58;0.70;;;;;;;28.71;40.07;100540.47;10372607;28;98655;-72
2023/08/06 09:48:31;;;;;;;1.70;0.75;;;;;;;28.80;39.79;100556.56;10368082;28;96854;-72
2023/08/06 09:53:35;;;;;;;1.50;0.57;;;;;;;28.93;39.73;100556.91;10345532;28;97027;-74
2023/08/06 09:58:40;;;;;;;0.88;0.70;;;;;;;29.04;39.40;100545.72;10370582;28;96767;-73
2023/08/06 10:03:44;;;;;;;2.20;0.70;;;;;;;29.17;39.56;100546.03;10368654;28;96852;-73
2023/08/06 10:08:48;;;;;;;1.17;0.63;;;;;;;29.35;39.25;100545.00;10368779;28;97047;-73
2023/08/06 10:13:58;;;;;;;0.80;0.60;;;;;;;29.36;39.26;100538.56;10370433;28;97853;-73
2023/08/06 10:19:05;;;;;;;1.23;0.70;;;;;;;29.46;38.81;100536.47;10370547;28;96901;-73
2023/08/06 10:24:10;;;;;;;1.33;0.60;;;;;;;29.50;38.51;100533.25;10367780;28;97454;-73
2023/08/06 10:29:39;;;;;;;1.08;0.63;;;;;;;29.71;38.60;100527.28;10370477;28;97159;-73
2023/08/06 10:34:57;;;;;;;0.70;0.45;;;;;;;29.89;38.30;100517.84;10370770;28;96958;-73
2023/08/06 10:40:00;;;;;;;0.95;0.60;;;;;;;29.87;37.61;100519.88;10376229;28;97500;-73
2023/08/06 10:45:16;;;;;;;1.95;0.70;;;;;;;30.06;37.88;100508.59;10374620;28;97091;-73
2023/08/06 10:50:19;;;;;;;1.20;0.68;;;;;;;30.10;37.49;100503.66;10376227;28;98654;-74
2023/08/06 10:55:24;;;;;;;0.95;0.63;;;;;;;30.29;37.29;100503.19;10368532;28;97700;-74
2023/08/06 11:00:29;;;;;;;0.90;0.50;;;;;;;30.39;37.21;100505.66;10372237;28;97644;-72
2023/08/06 11:05:33;;;;;;;0.68;0.50;;;;;;;30.48;37.35;100502.72;10376285;28;96716;-72
2023/08/06 11:10:37;;;;;;;1.20;0.60;;;;;;;30.54;36.57;100506.59;10375881;28;96925;-73
2023/08/06 11:15:48;;;;;;;0.85;0.50;;;;;;;30.82;36.24;100491.44;10374160;28;96984;-73
2023/08/06 11:20:52;;;;;;;1.27;0.70;;;;;;;30.78;36.36;100493.66;10376553;28;98962;-72
2023/08/06 11:25:55;;;;;;;;;;;;;;;30.72;35.58;100475.38;10374169;28;96916;-72
2023/08/06 11:31:02;;;;;;;1.53;0.87;;;;;;;31.09;35.74;100475.34;10377900;28;96721;-72
2023/08/06 11:36:07;;;;;;;0.85;0.60;;;;;;;30.99;35.15;100468.47;10376748;28;96767;-72
2023/08/06 11:41:10;;;;;;;1.30;0.80;;;;;;;31.17;34.75;100458.06;10374299;28;98487;-73
2023/08/06 11:46:15;;;;;;;1.83;0.40;;;;;;;31.23;35.32;100443.72;10371379;28;97175;-72
2023/08/06 11:51:20;;;;;;;1.20;0.70;;;;;;;31.67;34.76;100444.53;10373015;28;96796;-74
2023/08/06 11:56:23;;;;;;;1.42;0.70;;;;;;;31.78;35.17;100440.47;10370922;28;98968;-74
2023/08/06 12:01:29;;;;;;;0.73;0.50;;;;;;;31.87;34.45;100425.75;10371375;28;96923;-74
2023/08/06 12:06:43;;;;;;;1.45;0.50;;;;;;;32.04;33.88;100424.44;10373964;28;97517;-73
2023/08/06 12:11:46;;;;;;;0.77;0.50;;;;;;;31.83;33.82;100424.44;10372668;28;96831;-78
2023/08/06 12:16:51;;;;;;;1.17;0.50;;;;;;;32.23;34.14;100418.34;10370581;28;97187;-79
2023/08/06 12:21:54;;;;;;;0.57;0.43;;;;;;;32.30;33.70;100413.81;10373502;28;96929;-78
2023/08/06 12:26:58;;;;;;;0.80;0.60;;;;;;;32.20;33.22;100403.22;10375010;28;96765;-78
2023/08/06 12:32:03;;;;;;;0.75;0.65;;;;;;;32.39;32.70;100399.84;10370456;28;98793;-79
2023/08/06 12:37:06;;;;;;;0.80;0.50;;;;;;;32.32;32.17;100396.22;10372342;28;97006;-78
2023/08/06 12:42:10;;;;;;;1.05;0.60;;;;;;;32.51;32.31;100389.28;10373767;28;97320;-78
2023/08/06 12:47:15;;;;;;;0.90;0.50;;;;;;;32.83;31.44;100383.19;10370192;28;98555;-81
2023/08/06 12:52:19;;;;;;;0.68;0.60;;;;;;;32.74;31.37;100369.94;10370656;28;98453;-81
2023/08/06 12:57:22;;;;;;;1.23;0.43;;;;;;;33.09;30.82;100369.75;10370540;28;97561;-80
2023/08/06 13:02:29;;;;;;;0.80;0.60;;;;;;;33.24;30.15;100361.44;10372662;28;97622;-82
2023/08/06 13:07:33;;;;;;;0.63;0.50;;;;;;;33.44;30.14;100357.75;10369051;28;98579;-78
2023/08/06 13:12:36;;;;;;;1.02;0.60;;;;;;;33.49;29.16;100351.66;10365391;28;97777;-77
2023/08/06 13:17:41;;;;;;;0.82;0.57;;;;;;;33.71;29.75;100344.19;10375988;28;96896;-77
2023/08/06 13:22:46;;;;;;;1.25;0.70;;;;;;;33.84;29.34;100330.53;10358462;28;98739;-75
2023/08/06 13:27:51;;;;;;;0.77;0.60;;;;;;;33.82;29.19;100329.91;10368554;28;99387;-81
2023/08/06 13:32:56;;;;;;;0.90;0.40;;;;;;;33.96;28.81;100326.16;10339648;28;97287;-80
2023/08/06 13:38:02;;;;;;;0.60;0.60;;;;;;;33.95;28.29;100316.28;10347636;28;97095;-79
2023/08/06 13:43:05;;;;;;;1.23;0.60;;;;;;;34.07;28.27;100312.75;10371147;28;97713;-80
2023/08/06 13:48:11;;;;;;;0.82;0.60;;;;;;;34.08;27.84;100314.41;10370264;28;96775;-80
2023/08/06 13:53:15;;;;;;;0.60;0.50;;;;;;;34.38;27.29;100299.25;10370517;28;96967;-81
2023/08/06 13:58:18;;;;;;;0.55;0.22;;;;;;;34.66;27.33;100301.75;10371419;28;96669;-80
2023/08/06 14:03:23;;;;;;;0.73;0.40;;;;;;;34.70;26.97;100296.69;10370493;28;97116;-80
2023/08/06 14:08:28;;;;;;;1.00;0.70;;;;;;;34.73;26.27;100288.06;10370348;28;97952;-80
2023/08/06 14:13:31;;;;;;;1.35;0.55;;;;;;;34.91;26.43;100283.56;10375786;28;96720;-81
2023/08/06 14:18:39;;;;;;;0.73;0.52;;;;;;;35.07;25.78;100272.16;10377220;28;97018;-80
2023/08/06 14:23:42;;;;;;;1.20;0.63;;;;;;;35.11;25.33;100262.47;10377294;28;97395;-81
2023/08/06 14:28:45;;;;;;;0.60;0.50;;;;;;;35.12;25.06;100266.88;10376776;28;96998;-79
2023/08/06 14:33:52;;;;;;;0.57;0.40;;;;;;;35.28;25.19;100263.63;10376804;28;98178;-80
2023/08/06 14:38:55;;;;;;;1.10;0.60;;;;;;;35.50;23.68;100254.03;10376655;28;96607;-81
2023/08/06 14:44:02;;;;;;;0.95;0.50;;;;;;;35.67;23.41;100245.28;10376737;28;96812;-80
2023/08/06 14:49:07;;;;;;;0.85;0.55;;;;;;;35.76;22.58;100232.97;10376639;28;96566;-81
2023/08/06 14:54:10;;;;;;;0.65;0.50;;;;;;;36.02;22.28;100235.50;10376500;28;96755;-81
2023/08/06 14:59:13;;;;;;;1.05;0.57;;;;;;;35.89;22.80;100232.88;10376707;28;96854;-81
2023/08/06 15:04:19;;;;;;;1.08;0.57;;;;;;;36.17;22.65;100223.13;10374790;28;97417;-81
2023/08/06 15:09:22;;;;;;;1.33;0.80;;;;;;;36.13;22.29;100218.34;10375516;28;96907;-81
2023/08/06 15:14:25;;;;;;;1.23;0.55;;;;;;;36.08;22.73;100220.91;10375903;28;96729;-81
2023/08/06 15:19:30;;;;;;;0.68;0.60;;;;;;;36.05;22.86;100215.91;10375109;28;97656;-81
2023/08/06 15:24:36;;;;;;;0.98;0.52;;;;;;;36.24;23.44;100203.88;10374777;28;98035;-81
2023/08/06 15:29:39;;;;;;;0.75;0.50;;;;;;;36.31;23.55;100202.72;10375198;28;96981;-81
2023/08/06 15:34:45;;;;;;;0.57;0.50;;;;;;;36.45;22.85;100201.53;10375330;28;96984;-81
2023/08/06 15:39:48;;;;;;;0.40;0.40;;;;;;;36.74;22.71;100188.97;10375373;28;97088;-81
2023/08/06 15:44:51;;;;;;;0.85;0.60;;;;;;;36.66;23.36;100200.22;10374898;28;96671;-81
2023/08/06 15:49:57;;;;;;;0.50;0.40;;;;;;;36.69;23.43;100191.53;10374004;28;96670;-81
2023/08/06 15:55:04;;;;;;;0.77;0.60;;;;;;;36.54;24.05;100182.88;10372981;28;96857;-81
2023/08/06 16:00:09;;;;;;;0.80;0.60;;;;;;;36.43;24.17;100180.94;10374665;28;96559;-81
2023/08/06 16:05:14;;;;;;;0.70;0.60;;;;;;;36.14;24.26;100181.63;10374001;28;96709;-80
2023/08/06 16:10:19;;;;;;;0.57;0.50;;;;;;;36.08;24.71;100171.59;10373756;28;96598;-81
2023/08/06 16:15:22;;;;;;;1.15;0.90;;;;;;;35.81;24.68;100167.44;10373831;28;97060;-81
2023/08/06 16:20:28;;;;;;;0.98;0.57;;;;;;;35.79;24.64;100161.31;10373182;28;96696;-81
2023/08/06 16:25:31;;;;;;;1.63;0.70;;;;;;;35.71;25.08;100158.84;10373403;28;96688;-82
2023/08/06 16:30:37;;;;;;;1.33;0.70;;;;;;;35.50;25.35;100147.25;10373726;28;96874;-80
2023/08/06 16:35:42;;;;;;;0.93;0.63;;;;;;;35.45;25.35;100149.84;10372036;28;97482;-80
2023/08/06 16:40:53;;;;;;;0.50;0.50;;;;;;;35.37;25.07;100150.06;10373195;28;96680;-81
2023/08/06 16:45:56;;;;;;;0.73;0.60;;;;;;;35.44;24.90;100148.13;10371779;28;96671;-81
2023/08/06 16:51:02;;;;;;;1.00;0.60;;;;;;;35.43;23.69;100146.47;10372683;28;97673;-81
2023/08/06 16:56:06;;;;;;;1.02;0.73;;;;;;;35.42;23.42;100138.47;10372623;28;96694;-81
2023/08/06 17:01:09;;;;;;;0.98;0.77;;;;;;;35.46;23.64;100131.53;10371749;28;97303;-81
2023/08/06 17:06:15;;;;;;;0.90;0.77;;;;;;;35.42;24.03;100133.88;10372158;28;96690;-81
2023/08/06 17:11:19;;;;;;;0.93;0.70;;;;;;;35.38;23.47;100129.00;10372109;28;96707;-81
2023/08/06 17:16:23;;;;;;;1.92;0.70;;;;;;;35.39;23.50;100133.44;10371352;28;96802;-81
2023/08/06 17:21:29;;;;;;;1.17;0.70;;;;;;;35.45;23.29;100127.94;10372322;28;96759;-81
2023/08/06 17:26:35;;;;;;;1.13;0.82;;;;;;;35.49;23.31;100126.44;10371719;28;96704;-81
2023/08/06 17:31:38;;;;;;;1.58;0.90;;;;;;;35.60;22.76;100122.94;10371202;28;96683;-81
2023/08/06 17:36:43;;;;;;;1.20;0.80;;;;;;;35.58;23.65;100119.59;10370049;28;96679;-81
2023/08/06 17:41:46;;;;;;;1.38;0.68;;;;;;;35.56;23.82;100116.22;10371974;28;96722;-81
2023/08/06 17:46:50;;;;;;;0.93;0.50;;;;;;;35.53;23.91;100121.31;10385677;22;100150;-81
2023/08/06 17:51:54;;;;;;;1.83;0.63;;;;;;;35.55;23.89;100108.25;10391077;28;96832;-81
2023/08/06 17:56:58;;;;;;;1.13;0.70;;;;;;;35.47;24.17;100108.53;10411233;28;97214;-81
2023/08/06 18:02:02;;;;;;;0.82;0.40;;;;;;;35.45;24.00;100113.41;10418211;28;96768;-81
2023/08/06 18:07:07;;;;;;;1.23;0.80;;;;;;;35.29;24.39;100112.03;10398597;28;96910;-81
2023/08/06 18:12:10;;;;;;;1.05;0.57;;;;;;;35.24;24.69;100106.38;10342706;28;96723;-81
2023/08/06 18:17:14;;;;;;;1.10;0.60;;;;;;;35.05;24.60;100106.53;10336151;28;96585;-81
2023/08/06 18:22:19;;;;;;;0.90;0.57;;;;;;;34.91;25.08;100102.19;10335974;28;96856;-81
2023/08/06 18:27:23;;;;;;;1.23;0.93;;;;;;;34.65;25.20;100103.19;10334934;28;97206;-81
2023/08/06 18:32:26;;;;;;;0.70;0.60;;;;;;;34.31;26.95;100107.13;10335331;28;97630;-81
2023/08/06 18:37:34;;;;;;;1.00;0.77;;;;;;;33.94;27.51;100110.63;10335679;28;96732;-81
2023/08/06 18:42:38;;;;;;;2.45;0.57;;;;;;;33.79;27.74;100109.16;10346392;28;96818;-81
2023/08/06 18:47:44;;;;;;;1.27;0.68;;;;;;;33.52;27.68;100105.63;10334750;28;96700;-81
2023/08/06 18:52:49;;;;;;;0.90;0.60;;;;;;;33.36;27.86;100106.84;10335184;28;96653;-81
2023/08/06 18:57:53;;;;;;;1.92;0.70;;;;;;;33.13;28.90;100111.06;10334272;28;97284;-81
2023/08/06 19:02:56;;;;;;;1.23;0.70;;;;;;;32.96;29.29;100109.78;10336403;28;96950;-81
2023/08/06 19:08:01;;;;;;;1.02;0.70;;;;;;;32.76;30.42;100114.34;10334704;28;96604;-81
2023/08/06 19:13:09;;;;;;;1.23;0.77;;;;;;;32.60;30.77;100109.28;10334703;28;96625;-80
2023/08/06 19:18:13;;;;;;;1.27;0.70;;;;;;;32.49;31.25;100118.88;10333746;28;96962;-81
2023/08/06 19:23:19;;;;;;;1.63;0.90;;;;;;;32.26;31.18;100129.22;10334279;28;96697;-81
2023/08/06 19:28:23;;;;;;;1.10;0.60;;;;;;;32.07;32.37;100128.09;10333993;28;96966;-81
2023/08/06 19:33:26;;;;;;;1.55;0.90;;;;;;;31.86;32.66;100127.34;10333936;28;96630;-81
2023/08/06 19:38:32;;;;;;;1.80;1.00;;;;;;;31.69;33.34;100124.06;10333659;28;96692;-81
2023/08/06 19:43:35;;;;;;;0.85;0.70;;;;;;;31.52;33.95;100133.56;10374380;28;96808;-81
2023/08/06 19:48:39;;;;;;;1.40;0.95;;;;;;;31.26;33.98;100127.91;10393870;28;96629;-81
2023/08/06 19:53:44;;;;;;;1.25;0.98;;;;;;;31.10;34.32;100133.56;10311100;28;97231;-81
2023/08/06 19:58:49;;;;;;;1.27;0.95;;;;;;;31.04;35.00;100146.06;10291869;28;97693;-81
2023/08/06 20:03:52;;;;;;;1.33;0.95;;;;;;;30.94;35.77;100153.72;10291933;28;97413;-81
2023/08/06 20:08:57;;;;;;;;;;;;;;;30.67;36.67;100159.91;10290947;28;96583;-81
2023/08/06 20:14:01;;;;;;;1.83;0.90;;;;;;;30.37;36.37;100174.53;10291263;28;96998;-81
2023/08/06 20:19:08;;;;;;;1.95;0.90;;;;;;;30.17;37.17;100173.44;10290552;28;96626;-81
2023/08/06 20:24:13;;;;;;;0.98;0.80;;;;;;;30.29;37.28;100182.78;10291571;28;97269;-80
2023/08/06 20:29:19;;;;;;;1.38;0.93;;;;;;;30.12;38.16;100182.16;10354708;28;97639;-80
2023/08/06 20:34:22;;;;;;;2.20;0.90;;;;;;;30.10;38.26;100195.06;10341236;28;97739;-80
2023/08/06 20:39:26;;;;;;;;;;;;;;;30.03;39.06;100198.66;10332358;28;96562;-81
2023/08/06 20:44:34;;;;;;;1.85;1.00;;;;;;;29.91;39.12;100194.72;10316940;28;96767;-80
2023/08/06 20:49:38;;;;;;;0.70;0.65;;;;;;;29.82;38.93;100207.53;10361023;28;97247;-81
2023/08/06 20:54:43;;;;;;;1.00;0.80;;;;;;;29.60;39.94;100204.88;10372324;28;97394;-81
2023/08/06 20:59:47;;;;;;;1.25;0.85;;;;;;;29.38;40.92;100208.41;10338793;28;97253;-81
2023/08/06 21:04:51;;;;;;;1.25;0.90;;;;;;;29.21;41.82;100212.28;10289804;28;97103;-81
2023/08/06 21:09:56;;;;;;;2.70;1.30;;;;;;;29.05;42.15;100210.53;10289675;28;96967;-80
2023/08/06 21:15:01;;;;;;;2.65;1.00;;;;;;;29.06;42.04;100213.06;10289607;28;96772;-81
2023/08/06 21:20:05;;;;;;;1.55;0.95;;;;;;;29.12;41.71;100216.94;10286582;28;96699;-81
2023/08/06 21:25:11;;;;;;;1.25;1.00;;;;;;;29.04;41.73;100216.97;10289532;28;96621;-81
2023/08/06 21:30:15;;;;;;;1.40;1.10;;;;;;;28.79;42.93;100221.63;10289154;28;96928;-80
2023/08/06 21:35:18;;;;;;;2.85;1.20;;;;;;;28.67;43.87;100223.06;10317904;28;96647;-81
2023/08/06 21:40:23;;;;;;;1.63;0.98;;;;;;;28.61;43.53;100223.78;10329735;28;96831;-81
2023/08/06 21:45:26;;;;;;;1.50;1.10;;;;;;;28.61;43.44;100229.19;10329613;28;96979;-81
2023/08/06 21:50:30;;;;;;;2.00;1.00;;;;;;;28.31;44.33;100229.16;10364572;28;97044;-80
2023/08/06 21:55:38;;;;;;;2.00;1.20;;;;;;;28.06;45.63;100233.75;10370431;28;96769;-80
2023/08/06 22:00:41;;;;;;;1.85;1.25;;;;;;;27.95;45.65;100236.81;10370838;28;96728;-80
2023/08/06 22:05:47;;;;;;;1.38;0.93;;;;;;;28.08;44.37;100239.84;10370810;28;96833;-80
2023/08/06 22:10:52;;;;;;;1.45;0.93;;;;;;;27.99;44.04;100249.84;10329286;28;97069;-81
2023/08/06 22:15:55;;;;;;;1.58;0.80;;;;;;;27.65;45.72;100256.44;10329081;28;97126;-80
2023/08/06 22:20:59;;;;;;;;;;;;;;;27.47;48.17;100258.44;10343506;28;96789;-81
2023/08/06 22:26:08;;;;;;;1.92;1.20;;;;;;;27.34;46.73;100264.34;10370167;28;97070;-80
2023/08/06 22:31:15;;;;;;;1.10;0.80;;;;;;;27.16;47.46;100262.81;10371547;28;96576;-80
2023/08/06 22:36:18;;;;;;;1.63;0.80;;;;;;;27.35;45.57;100270.59;10377016;28;96569;-80
2023/08/06 22:41:24;;;;;;;1.95;1.02;;;;;;;27.18;47.77;100263.47;10375151;28;97567;-80
2023/08/06 22:46:29;;;;;;;1.77;1.10;;;;;;;26.98;47.88;100263.75;10375618;28;97809;-81
2023/08/06 22:51:33;;;;;;;1.35;0.90;;;;;;;26.76;49.03;100264.34;10376357;28;96663;-80
2023/08/06 22:56:38;;;;;;;1.55;1.00;;;;;;;26.64;49.22;100273.75;10376530;28;97205;-80
2023/08/06 23:01:41;;;;;;;1.08;0.90;;;;;;;26.44;50.12;100274.13;10374769;28;96672;-80
2023/08/06 23:06:45;;;;;;;1.50;1.10;;;;;;;26.33;50.44;100267.16;10375719;28;96686;-80
2023/08/06 23:11:52;;;;;;;1.10;0.85;;;;;;;26.22;50.70;100263.88;10375738;28;96731;-80
2023/08/06 23:16:56;;;;;;;2.35;1.15;;;;;;;26.07;51.11;100265.47;10375037;28;97069;-81
2023/08/06 23:22:00;;;;;;;1.10;0.93;;;;;;;25.90;51.37;100270.75;10397717;28;96778;-80
2023/08/06 23:27:06;;;;;;;1.47;0.90;;;;;;;25.82;51.48;100275.25;10417134;28;97037;-80